sensor_id;sensor_type;location;lat;lon;timestamp;P1;durP1;ratioP1;P2;durP2;ratioP2
28245;SDS011;15510;52.512;13.300;2023-04-22T00:00:39;7.70;;;5.80;;
28245;SDS011;15510;52.512;13.300;2023-04-22T00:03:06;9.05;;;5.80;;
28245;SDS011;15510;52.512;13.300;2023-04-22T00:05:32;8.63;;;5.50;;
28245;SDS011;15510;52.512;13.300;2023-04-22T00:07:58;7.43;;;5.43;;
28245;SDS011;15510;52.512;13.300;2023-04-22T00:10:25;6.85;;;4.82;;
28245;SDS011;15510;52.512;13.300;2023-04-22T00:12:51;7.33;;;5.27;;
28245;SDS011;15510;52.512;13.300;2023-04-22T00:15:16;8.38;;;4.85;;
28245;SDS011;15510;52.512;13.300;2023-04-22T00:17:45;7.78;;;5.32;;
28245;SDS011;15510;52.512;13.300;2023-04-22T00:20:14;7.97;;;5.63;;
28245;SDS011;15510;52.512;13.300;2023-04-22T00:22:40;6.72;;;5.50;;
28245;SDS011;15510;52.512;13.300;2023-04-22T00:25:06;8.77;;;5.67;;
28245;SDS011;15510;52.512;13.300;2023-04-22T00:27:32;6.88;;;5.00;;
28245;SDS011;15510;52.512;13.300;2023-04-22T00:29:58;7.47;;;5.07;;
28245;SDS011;15510;52.512;13.300;2023-04-22T00:32:24;8.52;;;5.38;;
28245;SDS011;15510;52.512;13.300;2023-04-22T00:34:50;7.97;;;5.20;;
28245;SDS011;15510;52.512;13.300;2023-04-22T00:37:16;7.47;;;5.22;;
28245;SDS011;15510;52.512;13.300;2023-04-22T00:39:42;8.40;;;5.43;;
28245;SDS011;15510;52.512;13.300;2023-04-22T00:42:07;7.07;;;4.95;;
28245;SDS011;15510;52.512;13.300;2023-04-22T00:44:34;8.07;;;5.47;;
28245;SDS011;15510;52.512;13.300;2023-04-22T00:47:00;8.53;;;5.50;;
28245;SDS011;15510;52.512;13.300;2023-04-22T00:49:26;6.72;;;5.00;;
28245;SDS011;15510;52.512;13.300;2023-04-22T00:51:52;7.37;;;5.33;;
28245;SDS011;15510;52.512;13.300;2023-04-22T00:54:18;7.57;;;5.28;;
28245;SDS011;15510;52.512;13.300;2023-04-22T00:56:44;7.93;;;5.45;;
28245;SDS011;15510;52.512;13.300;2023-04-22T00:59:10;7.18;;;5.15;;
28245;SDS011;15510;52.512;13.300;2023-04-22T01:01:36;8.57;;;5.45;;
28245;SDS011;15510;52.512;13.300;2023-04-22T01:04:03;6.80;;;5.18;;
28245;SDS011;15510;52.512;13.300;2023-04-22T01:06:29;12.27;;;5.70;;
28245;SDS011;15510;52.512;13.300;2023-04-22T01:08:58;7.33;;;5.43;;
28245;SDS011;15510;52.512;13.300;2023-04-22T01:11:23;6.93;;;5.50;;
28245;SDS011;15510;52.512;13.300;2023-04-22T01:13:49;10.18;;;5.72;;
28245;SDS011;15510;52.512;13.300;2023-04-22T01:16:15;9.10;;;5.50;;
28245;SDS011;15510;52.512;13.300;2023-04-22T01:18:42;7.47;;;5.47;;
28245;SDS011;15510;52.512;13.300;2023-04-22T01:21:08;8.93;;;5.35;;
28245;SDS011;15510;52.512;13.300;2023-04-22T01:23:34;10.03;;;5.60;;
28245;SDS011;15510;52.512;13.300;2023-04-22T01:26:00;8.73;;;5.95;;
28245;SDS011;15510;52.512;13.300;2023-04-22T01:28:26;7.57;;;5.45;;
28245;SDS011;15510;52.512;13.300;2023-04-22T01:30:53;10.10;;;5.67;;
28245;SDS011;15510;52.512;13.300;2023-04-22T01:33:20;7.60;;;5.60;;
28245;SDS011;15510;52.512;13.300;2023-04-22T01:35:46;8.63;;;5.73;;
28245;SDS011;15510;52.512;13.300;2023-04-22T01:38:12;6.93;;;5.47;;
28245;SDS011;15510;52.512;13.300;2023-04-22T01:40:37;7.30;;;5.07;;
28245;SDS011;15510;52.512;13.300;2023-04-22T01:43:04;15.00;;;7.13;;
28245;SDS011;15510;52.512;13.300;2023-04-22T01:45:31;7.00;;;5.67;;
28245;SDS011;15510;52.512;13.300;2023-04-22T01:47:57;6.97;;;5.13;;
28245;SDS011;15510;52.512;13.300;2023-04-22T01:50:23;6.37;;;5.33;;
28245;SDS011;15510;52.512;13.300;2023-04-22T01:52:49;6.83;;;5.43;;
28245;SDS011;15510;52.512;13.300;2023-04-22T01:55:15;8.23;;;5.53;;
28245;SDS011;15510;52.512;13.300;2023-04-22T01:57:42;9.27;;;6.03;;
28245;SDS011;15510;52.512;13.300;2023-04-22T02:00:08;11.87;;;5.63;;
28245;SDS011;15510;52.512;13.300;2023-04-22T02:02:46;6.07;;;5.40;;
28245;SDS011;15510;52.512;13.300;2023-04-22T02:05:11;10.27;;;5.03;;
28245;SDS011;15510;52.512;13.300;2023-04-22T02:07:37;7.33;;;5.33;;
28245;SDS011;15510;52.512;13.300;2023-04-22T02:10:03;7.90;;;5.37;;
28245;SDS011;15510;52.512;13.300;2023-04-22T02:12:30;11.03;;;6.20;;
28245;SDS011;15510;52.512;13.300;2023-04-22T02:14:56;7.23;;;5.33;;
28245;SDS011;15510;52.512;13.300;2023-04-22T02:17:24;6.97;;;5.20;;
28245;SDS011;15510;52.512;13.300;2023-04-22T02:19:49;6.80;;;5.17;;
28245;SDS011;15510;52.512;13.300;2023-04-22T02:22:16;8.60;;;5.70;;
28245;SDS011;15510;52.512;13.300;2023-04-22T02:24:42;8.70;;;5.50;;
28245;SDS011;15510;52.512;13.300;2023-04-22T02:27:08;9.00;;;5.50;;
28245;SDS011;15510;52.512;13.300;2023-04-22T02:29:34;9.13;;;5.47;;
28245;SDS011;15510;52.512;13.300;2023-04-22T02:31:59;9.27;;;5.43;;
28245;SDS011;15510;52.512;13.300;2023-04-22T02:34:26;9.23;;;5.50;;
28245;SDS011;15510;52.512;13.300;2023-04-22T02:36:52;10.77;;;5.57;;
28245;SDS011;15510;52.512;13.300;2023-04-22T02:39:18;8.90;;;5.93;;
28245;SDS011;15510;52.512;13.300;2023-04-22T02:41:45;7.20;;;5.83;;
28245;SDS011;15510;52.512;13.300;2023-04-22T02:44:11;7.80;;;5.70;;
28245;SDS011;15510;52.512;13.300;2023-04-22T02:46:36;8.20;;;5.73;;
28245;SDS011;15510;52.512;13.300;2023-04-22T02:49:02;6.80;;;5.20;;
28245;SDS011;15510;52.512;13.300;2023-04-22T02:51:28;10.97;;;6.07;;
28245;SDS011;15510;52.512;13.300;2023-04-22T02:53:53;7.60;;;5.90;;
28245;SDS011;15510;52.512;13.300;2023-04-22T02:56:19;8.93;;;6.17;;
28245;SDS011;15510;52.512;13.300;2023-04-22T02:58:45;9.37;;;5.63;;
28245;SDS011;15510;52.512;13.300;2023-04-22T03:01:11;8.77;;;6.10;;
28245;SDS011;15510;52.512;13.300;2023-04-22T03:03:37;7.17;;;5.70;;
28245;SDS011;15510;52.512;13.300;2023-04-22T03:06:06;8.17;;;5.90;;
28245;SDS011;15510;52.512;13.300;2023-04-22T03:08:32;8.30;;;5.50;;
28245;SDS011;15510;52.512;13.300;2023-04-22T03:10:57;7.40;;;5.83;;
28245;SDS011;15510;52.512;13.300;2023-04-22T03:13:23;9.97;;;5.67;;
28245;SDS011;15510;52.512;13.300;2023-04-22T03:15:49;7.37;;;5.33;;
28245;SDS011;15510;52.512;13.300;2023-04-22T03:18:16;7.97;;;5.77;;
28245;SDS011;15510;52.512;13.300;2023-04-22T03:20:42;8.80;;;6.33;;
28245;SDS011;15510;52.512;13.300;2023-04-22T03:23:08;11.27;;;5.73;;
28245;SDS011;15510;52.512;13.300;2023-04-22T03:25:35;11.20;;;6.40;;
28245;SDS011;15510;52.512;13.300;2023-04-22T03:28:04;8.37;;;5.80;;
28245;SDS011;15510;52.512;13.300;2023-04-22T03:30:29;6.03;;;5.43;;
28245;SDS011;15510;52.512;13.300;2023-04-22T03:32:56;10.43;;;5.73;;
28245;SDS011;15510;52.512;13.300;2023-04-22T03:35:46;15.10;;;6.67;;
28245;SDS011;15510;52.512;13.300;2023-04-22T03:38:16;8.83;;;6.43;;
28245;SDS011;15510;52.512;13.300;2023-04-22T03:40:41;11.70;;;5.73;;
28245;SDS011;15510;52.512;13.300;2023-04-22T03:43:25;12.10;;;6.60;;
28245;SDS011;15510;52.512;13.300;2023-04-22T03:46:00;10.60;;;6.37;;
28245;SDS011;15510;52.512;13.300;2023-04-22T03:48:29;7.47;;;6.07;;
28245;SDS011;15510;52.512;13.300;2023-04-22T03:51:02;10.33;;;6.47;;
28245;SDS011;15510;52.512;13.300;2023-04-22T03:53:33;8.53;;;6.57;;
28245;SDS011;15510;52.512;13.300;2023-04-22T03:55:59;8.27;;;6.13;;
28245;SDS011;15510;52.512;13.300;2023-04-22T03:58:25;11.70;;;7.77;;
28245;SDS011;15510;52.512;13.300;2023-04-22T04:00:52;9.20;;;6.67;;
28245;SDS011;15510;52.512;13.300;2023-04-22T04:03:18;10.50;;;6.40;;
28245;SDS011;15510;52.512;13.300;2023-04-22T04:05:47;8.87;;;6.23;;
28245;SDS011;15510;52.512;13.300;2023-04-22T04:08:12;11.10;;;6.30;;
28245;SDS011;15510;52.512;13.300;2023-04-22T04:10:38;11.43;;;6.43;;
28245;SDS011;15510;52.512;13.300;2023-04-22T04:13:05;15.20;;;6.00;;
28245;SDS011;15510;52.512;13.300;2023-04-22T04:15:42;9.73;;;6.30;;
28245;SDS011;15510;52.512;13.300;2023-04-22T04:18:08;10.67;;;6.20;;
28245;SDS011;15510;52.512;13.300;2023-04-22T04:20:35;10.53;;;6.33;;
28245;SDS011;15510;52.512;13.300;2023-04-22T04:23:02;10.57;;;6.30;;
28245;SDS011;15510;52.512;13.300;2023-04-22T04:25:28;9.87;;;5.93;;
28245;SDS011;15510;52.512;13.300;2023-04-22T04:28:03;8.13;;;5.97;;
28245;SDS011;15510;52.512;13.300;2023-04-22T04:30:33;9.80;;;6.30;;
28245;SDS011;15510;52.512;13.300;2023-04-22T04:33:01;13.63;;;6.50;;
28245;SDS011;15510;52.512;13.300;2023-04-22T04:35:32;11.43;;;6.60;;
28245;SDS011;15510;52.512;13.300;2023-04-22T04:37:59;8.33;;;6.07;;
28245;SDS011;15510;52.512;13.300;2023-04-22T04:40:26;11.17;;;6.57;;
28245;SDS011;15510;52.512;13.300;2023-04-22T04:43:08;10.87;;;7.03;;
28245;SDS011;15510;52.512;13.300;2023-04-22T04:45:44;8.57;;;6.33;;
28245;SDS011;15510;52.512;13.300;2023-04-22T04:48:12;8.90;;;6.13;;
28245;SDS011;15510;52.512;13.300;2023-04-22T04:50:48;9.90;;;6.97;;
28245;SDS011;15510;52.512;13.300;2023-04-22T04:53:18;13.97;;;6.77;;
28245;SDS011;15510;52.512;13.300;2023-04-22T04:55:45;11.90;;;7.03;;
28245;SDS011;15510;52.512;13.300;2023-04-22T04:58:18;11.90;;;6.70;;
28245;SDS011;15510;52.512;13.300;2023-04-22T05:00:47;11.93;;;6.53;;
28245;SDS011;15510;52.512;13.300;2023-04-22T05:03:16;12.47;;;7.10;;
28245;SDS011;15510;52.512;13.300;2023-04-22T05:05:43;11.03;;;6.60;;
28245;SDS011;15510;52.512;13.300;2023-04-22T05:08:10;9.40;;;6.63;;
28245;SDS011;15510;52.512;13.300;2023-04-22T05:10:38;10.07;;;6.90;;
28245;SDS011;15510;52.512;13.300;2023-04-22T05:13:04;10.07;;;6.30;;
28245;SDS011;15510;52.512;13.300;2023-04-22T05:15:30;9.90;;;6.70;;
28245;SDS011;15510;52.512;13.300;2023-04-22T05:17:55;10.43;;;7.00;;
28245;SDS011;15510;52.512;13.300;2023-04-22T05:20:21;10.70;;;6.87;;
28245;SDS011;15510;52.512;13.300;2023-04-22T05:22:48;9.23;;;6.43;;
28245;SDS011;15510;52.512;13.300;2023-04-22T05:25:14;16.20;;;6.80;;
28245;SDS011;15510;52.512;13.300;2023-04-22T05:27:49;11.20;;;7.33;;
28245;SDS011;15510;52.512;13.300;2023-04-22T05:30:17;9.87;;;7.13;;
28245;SDS011;15510;52.512;13.300;2023-04-22T05:32:42;14.93;;;7.27;;
28245;SDS011;15510;52.512;13.300;2023-04-22T05:35:09;10.63;;;6.97;;
28245;SDS011;15510;52.512;13.300;2023-04-22T05:37:35;10.80;;;6.57;;
28245;SDS011;15510;52.512;13.300;2023-04-22T05:40:01;12.50;;;7.03;;
28245;SDS011;15510;52.512;13.300;2023-04-22T05:42:28;11.57;;;6.50;;
28245;SDS011;15510;52.512;13.300;2023-04-22T05:44:53;12.07;;;7.10;;
28245;SDS011;15510;52.512;13.300;2023-04-22T05:47:19;9.63;;;6.87;;
28245;SDS011;15510;52.512;13.300;2023-04-22T05:49:45;12.30;;;7.23;;
28245;SDS011;15510;52.512;13.300;2023-04-22T05:52:17;11.23;;;6.43;;
28245;SDS011;15510;52.512;13.300;2023-04-22T05:55:07;10.83;;;7.27;;
28245;SDS011;15510;52.512;13.300;2023-04-22T05:57:33;7.17;;;6.17;;
28245;SDS011;15510;52.512;13.300;2023-04-22T06:00:03;11.33;;;7.37;;
28245;SDS011;15510;52.512;13.300;2023-04-22T06:02:38;10.07;;;7.10;;
28245;SDS011;15510;52.512;13.300;2023-04-22T06:05:04;8.80;;;6.83;;
28245;SDS011;15510;52.512;13.300;2023-04-22T06:07:30;13.83;;;7.27;;
28245;SDS011;15510;52.512;13.300;2023-04-22T06:09:56;9.43;;;7.23;;
28245;SDS011;15510;52.512;13.300;2023-04-22T06:12:22;11.00;;;7.03;;
28245;SDS011;15510;52.512;13.300;2023-04-22T06:14:48;13.57;;;7.90;;
28245;SDS011;15510;52.512;13.300;2023-04-22T06:17:14;9.97;;;7.10;;
28245;SDS011;15510;52.512;13.300;2023-04-22T06:19:39;11.73;;;7.10;;
28245;SDS011;15510;52.512;13.300;2023-04-22T06:22:05;9.80;;;7.00;;
28245;SDS011;15510;52.512;13.300;2023-04-22T06:24:31;12.33;;;7.23;;
28245;SDS011;15510;52.512;13.300;2023-04-22T06:26:56;12.60;;;7.20;;
28245;SDS011;15510;52.512;13.300;2023-04-22T06:29:24;9.83;;;7.50;;
28245;SDS011;15510;52.512;13.300;2023-04-22T06:31:51;11.60;;;7.87;;
28245;SDS011;15510;52.512;13.300;2023-04-22T06:34:19;8.90;;;6.83;;
28245;SDS011;15510;52.512;13.300;2023-04-22T06:36:45;17.38;;;7.63;;
28245;SDS011;15510;52.512;13.300;2023-04-22T06:39:10;9.97;;;7.03;;
28245;SDS011;15510;52.512;13.300;2023-04-22T06:41:47;11.38;;;7.78;;
28245;SDS011;15510;52.512;13.300;2023-04-22T06:44:39;12.30;;;7.90;;
28245;SDS011;15510;52.512;13.300;2023-04-22T06:47:25;13.07;;;7.20;;
28245;SDS011;15510;52.512;13.300;2023-04-22T06:50:01;11.52;;;7.25;;
28245;SDS011;15510;52.512;13.300;2023-04-22T06:52:47;11.80;;;7.13;;
28245;SDS011;15510;52.512;13.300;2023-04-22T06:55:13;10.45;;;7.55;;
28245;SDS011;15510;52.512;13.300;2023-04-22T06:57:39;12.23;;;7.55;;
28245;SDS011;15510;52.512;13.300;2023-04-22T07:00:05;12.90;;;6.88;;
28245;SDS011;15510;52.512;13.300;2023-04-22T07:02:37;9.27;;;6.43;;
28245;SDS011;15510;52.512;13.300;2023-04-22T07:05:03;9.18;;;6.80;;
28245;SDS011;15510;52.512;13.300;2023-04-22T07:07:29;10.02;;;6.90;;
28245;SDS011;15510;52.512;13.300;2023-04-22T07:09:55;9.68;;;6.82;;
28245;SDS011;15510;52.512;13.300;2023-04-22T07:12:25;12.85;;;7.38;;
28245;SDS011;15510;52.512;13.300;2023-04-22T07:14:51;11.88;;;7.32;;
28245;SDS011;15510;52.512;13.300;2023-04-22T07:17:16;8.98;;;6.45;;
28245;SDS011;15510;52.512;13.300;2023-04-22T07:19:46;10.27;;;6.50;;
28245;SDS011;15510;52.512;13.300;2023-04-22T07:22:12;11.75;;;6.70;;
28245;SDS011;15510;52.512;13.300;2023-04-22T07:24:37;10.90;;;6.85;;
28245;SDS011;15510;52.512;13.300;2023-04-22T07:27:04;10.57;;;7.53;;
28245;SDS011;15510;52.512;13.300;2023-04-22T07:29:30;8.20;;;6.30;;
28245;SDS011;15510;52.512;13.300;2023-04-22T07:31:55;9.02;;;6.40;;
28245;SDS011;15510;52.512;13.300;2023-04-22T07:34:21;12.98;;;6.85;;
28245;SDS011;15510;52.512;13.300;2023-04-22T07:36:48;9.85;;;6.18;;
28245;SDS011;15510;52.512;13.300;2023-04-22T07:39:16;7.55;;;6.53;;
28245;SDS011;15510;52.512;13.300;2023-04-22T07:41:42;7.50;;;6.20;;
28245;SDS011;15510;52.512;13.300;2023-04-22T07:44:07;9.45;;;5.93;;
28245;SDS011;15510;52.512;13.300;2023-04-22T07:46:34;7.38;;;5.72;;
28245;SDS011;15510;52.512;13.300;2023-04-22T07:49:00;9.07;;;6.38;;
28245;SDS011;15510;52.512;13.300;2023-04-22T07:51:26;10.95;;;6.60;;
28245;SDS011;15510;52.512;13.300;2023-04-22T07:53:51;10.40;;;6.63;;
28245;SDS011;15510;52.512;13.300;2023-04-22T07:56:17;10.70;;;5.85;;
28245;SDS011;15510;52.512;13.300;2023-04-22T08:01:12;10.75;;;6.20;;
28245;SDS011;15510;52.512;13.300;2023-04-22T08:03:38;16.08;;;6.95;;
28245;SDS011;15510;52.512;13.300;2023-04-22T08:06:03;8.38;;;6.38;;
28245;SDS011;15510;52.512;13.300;2023-04-22T08:08:29;13.18;;;6.38;;
28245;SDS011;15510;52.512;13.300;2023-04-22T08:10:55;8.52;;;6.10;;
28245;SDS011;15510;52.512;13.300;2023-04-22T08:13:21;9.25;;;6.18;;
28245;SDS011;15510;52.512;13.300;2023-04-22T08:15:46;9.15;;;6.53;;
28245;SDS011;15510;52.512;13.300;2023-04-22T08:18:12;8.70;;;6.07;;
28245;SDS011;15510;52.512;13.300;2023-04-22T08:20:38;14.45;;;6.47;;
28245;SDS011;15510;52.512;13.300;2023-04-22T08:23:03;10.27;;;5.88;;
28245;SDS011;15510;52.512;13.300;2023-04-22T08:25:31;11.27;;;6.45;;
28245;SDS011;15510;52.512;13.300;2023-04-22T08:27:57;7.18;;;5.70;;
28245;SDS011;15510;52.512;13.300;2023-04-22T08:30:22;7.47;;;5.93;;
28245;SDS011;15510;52.512;13.300;2023-04-22T08:32:48;10.50;;;5.65;;
28245;SDS011;15510;52.512;13.300;2023-04-22T08:35:14;9.07;;;5.60;;
28245;SDS011;15510;52.512;13.300;2023-04-22T08:37:40;8.48;;;5.82;;
28245;SDS011;15510;52.512;13.300;2023-04-22T08:40:06;13.23;;;6.35;;
28245;SDS011;15510;52.512;13.300;2023-04-22T08:42:32;7.65;;;5.28;;
28245;SDS011;15510;52.512;13.300;2023-04-22T08:44:58;9.02;;;5.97;;
28245;SDS011;15510;52.512;13.300;2023-04-22T08:47:26;6.30;;;5.05;;
28245;SDS011;15510;52.512;13.300;2023-04-22T08:49:53;7.80;;;5.57;;
28245;SDS011;15510;52.512;13.300;2023-04-22T08:52:20;8.90;;;5.63;;
28245;SDS011;15510;52.512;13.300;2023-04-22T08:54:46;9.15;;;5.20;;
28245;SDS011;15510;52.512;13.300;2023-04-22T08:57:12;8.18;;;5.63;;
28245;SDS011;15510;52.512;13.300;2023-04-22T08:59:39;9.52;;;5.75;;
28245;SDS011;15510;52.512;13.300;2023-04-22T09:02:05;11.98;;;5.85;;
28245;SDS011;15510;52.512;13.300;2023-04-22T09:04:34;8.23;;;5.45;;
28245;SDS011;15510;52.512;13.300;2023-04-22T09:07:01;7.93;;;5.30;;
28245;SDS011;15510;52.512;13.300;2023-04-22T09:09:27;10.70;;;5.32;;
28245;SDS011;15510;52.512;13.300;2023-04-22T09:11:55;8.07;;;5.57;;
28245;SDS011;15510;52.512;13.300;2023-04-22T09:14:22;9.40;;;5.03;;
28245;SDS011;15510;52.512;13.300;2023-04-22T09:16:49;13.93;;;5.55;;
28245;SDS011;15510;52.512;13.300;2023-04-22T09:19:15;6.97;;;4.22;;
28245;SDS011;15510;52.512;13.300;2023-04-22T09:21:40;7.25;;;5.00;;
28245;SDS011;15510;52.512;13.300;2023-04-22T09:24:07;9.30;;;4.80;;
28245;SDS011;15510;52.512;13.300;2023-04-22T09:26:33;11.18;;;5.55;;
28245;SDS011;15510;52.512;13.300;2023-04-22T09:29:06;13.20;;;5.13;;
28245;SDS011;15510;52.512;13.300;2023-04-22T09:31:37;11.90;;;5.47;;
28245;SDS011;15510;52.512;13.300;2023-04-22T09:34:03;9.30;;;4.75;;
28245;SDS011;15510;52.512;13.300;2023-04-22T09:36:30;10.18;;;4.70;;
28245;SDS011;15510;52.512;13.300;2023-04-22T09:39:04;9.18;;;4.95;;
28245;SDS011;15510;52.512;13.300;2023-04-22T09:41:34;7.82;;;5.25;;
28245;SDS011;15510;52.512;13.300;2023-04-22T09:44:03;12.57;;;6.03;;
28245;SDS011;15510;52.512;13.300;2023-04-22T09:46:32;10.15;;;5.15;;
28245;SDS011;15510;52.512;13.300;2023-04-22T09:48:59;10.32;;;4.88;;
28245;SDS011;15510;52.512;13.300;2023-04-22T09:51:25;7.53;;;4.85;;
28245;SDS011;15510;52.512;13.300;2023-04-22T09:56:47;7.40;;;4.20;;
28245;SDS011;15510;52.512;13.300;2023-04-22T10:01:48;8.57;;;4.05;;
28245;SDS011;15510;52.512;13.300;2023-04-22T10:04:17;7.20;;;4.57;;
28245;SDS011;15510;52.512;13.300;2023-04-22T10:06:48;6.53;;;4.43;;
28245;SDS011;15510;52.512;13.300;2023-04-22T10:09:17;7.57;;;4.32;;
28245;SDS011;15510;52.512;13.300;2023-04-22T10:11:45;12.20;;;5.05;;
28245;SDS011;15510;52.512;13.300;2023-04-22T10:14:11;10.20;;;4.50;;
28245;SDS011;15510;52.512;13.300;2023-04-22T10:16:40;10.35;;;4.32;;
28245;SDS011;15510;52.512;13.300;2023-04-22T10:19:10;8.63;;;4.28;;
28245;SDS011;15510;52.512;13.300;2023-04-22T10:21:39;7.07;;;3.85;;
28245;SDS011;15510;52.512;13.300;2023-04-22T10:24:07;8.80;;;4.57;;
28245;SDS011;15510;52.512;13.300;2023-04-22T10:26:42;6.20;;;4.03;;
28245;SDS011;15510;52.512;13.300;2023-04-22T10:29:08;6.88;;;4.07;;
28245;SDS011;15510;52.512;13.300;2023-04-22T10:31:41;8.48;;;4.47;;
28245;SDS011;15510;52.512;13.300;2023-04-22T10:34:16;5.28;;;4.03;;
28245;SDS011;15510;52.512;13.300;2023-04-22T10:39:18;6.70;;;4.03;;
28245;SDS011;15510;52.512;13.300;2023-04-22T10:41:50;7.78;;;4.07;;
28245;SDS011;15510;52.512;13.300;2023-04-22T10:50:13;8.48;;;4.10;;
28245;SDS011;15510;52.512;13.300;2023-04-22T10:52:42;6.47;;;3.85;;
28245;SDS011;15510;52.512;13.300;2023-04-22T10:55:10;4.88;;;3.78;;
28245;SDS011;15510;52.512;13.300;2023-04-22T10:57:43;4.30;;;3.65;;
28245;SDS011;15510;52.512;13.300;2023-04-22T11:00:19;5.28;;;3.53;;
28245;SDS011;15510;52.512;13.300;2023-04-22T11:02:51;6.38;;;4.00;;
28245;SDS011;15510;52.512;13.300;2023-04-22T11:05:29;7.95;;;3.95;;
28245;SDS011;15510;52.512;13.300;2023-04-22T11:08:00;7.30;;;3.85;;
28245;SDS011;15510;52.512;13.300;2023-04-22T11:10:37;4.57;;;3.47;;
28245;SDS011;15510;52.512;13.300;2023-04-22T11:13:08;7.85;;;3.47;;
28245;SDS011;15510;52.512;13.300;2023-04-22T11:15:42;7.43;;;3.97;;
28245;SDS011;15510;52.512;13.300;2023-04-22T11:18:12;9.85;;;3.90;;
28245;SDS011;15510;52.512;13.300;2023-04-22T11:20:41;8.18;;;4.18;;
28245;SDS011;15510;52.512;13.300;2023-04-22T11:23:07;8.25;;;4.68;;
28245;SDS011;15510;52.512;13.300;2023-04-22T11:25:32;6.32;;;3.05;;
28245;SDS011;15510;52.512;13.300;2023-04-22T11:27:58;8.15;;;3.03;;
28245;SDS011;15510;52.512;13.300;2023-04-22T11:30:25;8.68;;;3.92;;
28245;SDS011;15510;52.512;13.300;2023-04-22T11:32:53;7.30;;;3.58;;
28245;SDS011;15510;52.512;13.300;2023-04-22T11:35:23;8.18;;;3.60;;
28245;SDS011;15510;52.512;13.300;2023-04-22T11:37:55;5.38;;;3.00;;
28245;SDS011;15510;52.512;13.300;2023-04-22T11:40:29;8.50;;;3.65;;
28245;SDS011;15510;52.512;13.300;2023-04-22T11:43:03;8.07;;;2.78;;
28245;SDS011;15510;52.512;13.300;2023-04-22T11:45:30;6.93;;;2.45;;
28245;SDS011;15510;52.512;13.300;2023-04-22T11:47:57;5.97;;;3.20;;
28245;SDS011;15510;52.512;13.300;2023-04-22T11:50:31;5.55;;;2.65;;
28245;SDS011;15510;52.512;13.300;2023-04-22T11:52:59;5.30;;;3.03;;
28245;SDS011;15510;52.512;13.300;2023-04-22T11:55:34;3.90;;;2.80;;
28245;SDS011;15510;52.512;13.300;2023-04-22T11:58:08;3.88;;;2.55;;
28245;SDS011;15510;52.512;13.300;2023-04-22T12:00:43;7.10;;;2.72;;
28245;SDS011;15510;52.512;13.300;2023-04-22T12:03:13;7.53;;;3.17;;
28245;SDS011;15510;52.512;13.300;2023-04-22T12:08:23;5.70;;;2.90;;
28245;SDS011;15510;52.512;13.300;2023-04-22T12:10:51;6.13;;;2.70;;
28245;SDS011;15510;52.512;13.300;2023-04-22T12:13:23;3.15;;;2.20;;
28245;SDS011;15510;52.512;13.300;2023-04-22T12:16:00;4.38;;;2.70;;
28245;SDS011;15510;52.512;13.300;2023-04-22T12:18:35;4.72;;;2.47;;
28245;SDS011;15510;52.512;13.300;2023-04-22T12:21:11;4.40;;;2.42;;
28245;SDS011;15510;52.512;13.300;2023-04-22T12:23:48;5.88;;;2.65;;
28245;SDS011;15510;52.512;13.300;2023-04-22T12:26:17;3.28;;;2.55;;
28245;SDS011;15510;52.512;13.300;2023-04-22T12:28:44;4.88;;;2.35;;
28245;SDS011;15510;52.512;13.300;2023-04-22T12:31:13;5.20;;;2.60;;
28245;SDS011;15510;52.512;13.300;2023-04-22T12:33:40;3.65;;;2.53;;
28245;SDS011;15510;52.512;13.300;2023-04-22T12:36:06;4.28;;;2.50;;
28245;SDS011;15510;52.512;13.300;2023-04-22T12:38:32;5.43;;;2.60;;
28245;SDS011;15510;52.512;13.300;2023-04-22T12:40:59;2.72;;;2.40;;
28245;SDS011;15510;52.512;13.300;2023-04-22T12:43:28;4.22;;;2.35;;
28245;SDS011;15510;52.512;13.300;2023-04-22T12:45:56;3.05;;;2.08;;
28245;SDS011;15510;52.512;13.300;2023-04-22T12:48:23;4.25;;;2.50;;
28245;SDS011;15510;52.512;13.300;2023-04-22T12:50:49;3.38;;;2.30;;
28245;SDS011;15510;52.512;13.300;2023-04-22T12:53:15;6.43;;;2.42;;
28245;SDS011;15510;52.512;13.300;2023-04-22T12:55:41;6.28;;;2.20;;
28245;SDS011;15510;52.512;13.300;2023-04-22T12:58:07;5.50;;;2.33;;
28245;SDS011;15510;52.512;13.300;2023-04-22T13:00:33;3.33;;;2.13;;
28245;SDS011;15510;52.512;13.300;2023-04-22T13:02:59;3.15;;;2.30;;
28245;SDS011;15510;52.512;13.300;2023-04-22T13:05:26;4.72;;;2.65;;
28245;SDS011;15510;52.512;13.300;2023-04-22T13:07:54;4.30;;;2.50;;
28245;SDS011;15510;52.512;13.300;2023-04-22T13:10:19;4.68;;;2.83;;
28245;SDS011;15510;52.512;13.300;2023-04-22T13:15:46;4.50;;;2.55;;
28245;SDS011;15510;52.512;13.300;2023-04-22T13:18:17;2.97;;;2.40;;
28245;SDS011;15510;52.512;13.300;2023-04-22T13:20:44;9.82;;;6.10;;
28245;SDS011;15510;52.512;13.300;2023-04-22T13:23:10;5.47;;;2.60;;
28245;SDS011;15510;52.512;13.300;2023-04-22T13:25:37;6.53;;;2.50;;
28245;SDS011;15510;52.512;13.300;2023-04-22T13:28:03;3.45;;;2.35;;
28245;SDS011;15510;52.512;13.300;2023-04-22T13:30:29;4.20;;;2.45;;
28245;SDS011;15510;52.512;13.300;2023-04-22T13:32:56;4.55;;;2.83;;
28245;SDS011;15510;52.512;13.300;2023-04-22T13:35:22;8.90;;;2.88;;
28245;SDS011;15510;52.512;13.300;2023-04-22T13:37:49;7.25;;;2.63;;
28245;SDS011;15510;52.512;13.300;2023-04-22T13:40:15;7.95;;;2.85;;
28245;SDS011;15510;52.512;13.300;2023-04-22T13:42:44;5.45;;;2.75;;
28245;SDS011;15510;52.512;13.300;2023-04-22T13:45:10;6.35;;;2.70;;
28245;SDS011;15510;52.512;13.300;2023-04-22T13:47:36;7.78;;;3.65;;
28245;SDS011;15510;52.512;13.300;2023-04-22T13:50:02;8.20;;;2.80;;
28245;SDS011;15510;52.512;13.300;2023-04-22T13:52:30;6.57;;;2.40;;
28245;SDS011;15510;52.512;13.300;2023-04-22T13:55:02;5.88;;;3.17;;
28245;SDS011;15510;52.512;13.300;2023-04-22T13:57:28;5.40;;;2.80;;
28245;SDS011;15510;52.512;13.300;2023-04-22T13:59:58;4.63;;;3.45;;
28245;SDS011;15510;52.512;13.300;2023-04-22T14:02:23;3.05;;;2.75;;
28245;SDS011;15510;52.512;13.300;2023-04-22T14:04:49;6.00;;;2.63;;
28245;SDS011;15510;52.512;13.300;2023-04-22T14:07:15;4.47;;;2.70;;
28245;SDS011;15510;52.512;13.300;2023-04-22T14:09:41;3.17;;;2.50;;
28245;SDS011;15510;52.512;13.300;2023-04-22T14:12:07;3.90;;;2.90;;
28245;SDS011;15510;52.512;13.300;2023-04-22T14:14:38;6.18;;;3.00;;
28245;SDS011;15510;52.512;13.300;2023-04-22T14:17:03;3.10;;;2.78;;
28245;SDS011;15510;52.512;13.300;2023-04-22T14:19:29;6.88;;;2.83;;
28245;SDS011;15510;52.512;13.300;2023-04-22T14:21:56;4.30;;;2.67;;
28245;SDS011;15510;52.512;13.300;2023-04-22T14:24:24;5.15;;;3.10;;
28245;SDS011;15510;52.512;13.300;2023-04-22T14:26:53;4.68;;;2.63;;
28245;SDS011;15510;52.512;13.300;2023-04-22T14:29:23;3.65;;;2.75;;
28245;SDS011;15510;52.512;13.300;2023-04-22T14:31:50;8.20;;;3.00;;
28245;SDS011;15510;52.512;13.300;2023-04-22T14:34:16;5.25;;;3.08;;
28245;SDS011;15510;52.512;13.300;2023-04-22T14:36:42;6.40;;;3.03;;
28245;SDS011;15510;52.512;13.300;2023-04-22T14:39:08;10.02;;;2.90;;
28245;SDS011;15510;52.512;13.300;2023-04-22T14:41:35;4.15;;;3.00;;
28245;SDS011;15510;52.512;13.300;2023-04-22T14:44:00;11.13;;;4.30;;
28245;SDS011;15510;52.512;13.300;2023-04-22T14:46:26;6.18;;;3.58;;
28245;SDS011;15510;52.512;13.300;2023-04-22T14:48:53;5.93;;;3.20;;
28245;SDS011;15510;52.512;13.300;2023-04-22T14:51:23;7.68;;;3.40;;
28245;SDS011;15510;52.512;13.300;2023-04-22T14:53:49;4.85;;;4.38;;
28245;SDS011;15510;52.512;13.300;2023-04-22T14:56:15;7.57;;;6.15;;